»·PEaware :: PHTIM KSNA-KPSP

PHTIM :: KSNA-KPSP

FLIGHT INFORMATION

Flight Status: Arrived
Operator: Unknown
More flights by this operator :: More flights under this callsign
Pilot: Tim P. (6337)
Aircraft: CESSNA 172 SKYHAWK
(C172)
More flights by this aircraft type
Origin: KSNA John Wayne-Orange Co
United States
Destination: KPSP Palm Springs Intl
United States
More flights between these airports :: More routes between these airports
Route: +
File this flight plan on PilotEdge
Remarks:
Altitude:
(Current/Filed)
5,500ft
Speed:
(Current/Filed)
0kts
Departed: 15-Dec-18 10:27 AM
Arrived: 15-Dec-18 11:12 AM
Distance/Time
Traveled:
68nm/0:45
Distance/Time
To Go:
Arrived

Flight Plot

Page will automatically refresh every two minutes.


Map Options




Map Legend


Flown Route
Filed Route
Departure Airport
Arrival Airport
Navaid (VOR, NDB)
Fix

Horizontal Profiles

Position Reports

Time Latitude Longitude Heading Altitude Ground
Speed
15-Dec-18 10:19 33.672218 -117.873702 206 60ft 0kts
15-Dec-18 10:20 33.672193 -117.873716 204 60ft 2kts
15-Dec-18 10:21 33.673066 -117.871990 27 60ft 11kts
15-Dec-18 10:22 33.676243 -117.869964 28 60ft 13kts
15-Dec-18 10:23 33.679509 -117.867994 13 60ft 12kts
15-Dec-18 10:24 33.681225 -117.866426 133 60ft 0kts
15-Dec-18 10:25 33.681225 -117.866426 133 60ft 0kts
15-Dec-18 10:26 33.679351 -117.866536 207 60ft 54kts
15-Dec-18 10:27 33.660592 -117.874691 140 893ft 84kts
15-Dec-18 10:28 33.657096 -117.847802 93 1891ft 83kts
15-Dec-18 10:29 33.655592 -117.820924 95 2887ft 78kts
15-Dec-18 10:30 33.665861 -117.798304 34 3649ft 85kts
15-Dec-18 10:31 33.685963 -117.781065 42 4347ft 89kts
15-Dec-18 10:32 33.704978 -117.761220 39 5019ft 93kts
15-Dec-18 10:33 33.724429 -117.740736 45 5464ft 100kts
15-Dec-18 10:34 33.745090 -117.716285 47 5573ft 106kts
15-Dec-18 10:35 33.768350 -117.689926 43 5560ft 124kts
15-Dec-18 10:36 33.793554 -117.662138 41 5570ft 124kts
15-Dec-18 10:37 33.817710 -117.637763 41 5439ft 123kts
15-Dec-18 10:38 33.843994 -117.611969 40 5411ft 118kts
15-Dec-18 10:39 33.864272 -117.589180 45 5527ft 115kts
15-Dec-18 10:40 33.887559 -117.559868 47 5477ft 119kts
15-Dec-18 10:41 33.899107 -117.523890 80 5431ft 121kts
15-Dec-18 10:42 33.903519 -117.485253 83 5446ft 119kts
15-Dec-18 10:43 33.913866 -117.450264 71 5491ft 115kts
15-Dec-18 10:44 33.912412 -117.411933 90 5463ft 111kts
15-Dec-18 10:45 33.913057 -117.373679 91 5469ft 116kts
15-Dec-18 10:46 33.912691 -117.335163 92 5530ft 114kts
15-Dec-18 10:47 33.912650 -117.301659 91 5530ft 114kts
15-Dec-18 10:48 33.911358 -117.263177 97 5533ft 112kts
15-Dec-18 10:49 33.909909 -117.224702 87 5537ft 117kts
15-Dec-18 10:50 33.911850 -117.185713 88 5539ft 117kts
15-Dec-18 10:51 33.914005 -117.145542 87 5541ft 120kts
15-Dec-18 10:52 33.915936 -117.104945 87 5543ft 120kts
15-Dec-18 10:53 33.917612 -117.066286 88 5544ft 114kts
15-Dec-18 10:54 33.919104 -117.027710 88 5547ft 116kts
15-Dec-18 10:55 33.920904 -116.988425 87 5550ft 120kts
15-Dec-18 10:56 33.922934 -116.949313 88 5549ft 117kts
15-Dec-18 10:57 33.924628 -116.909895 87 5554ft 119kts
15-Dec-18 10:58 33.926855 -116.869018 87 5547ft 123kts
15-Dec-18 10:59 33.927053 -116.826921 91 5348ft 128kts
15-Dec-18 11:00 33.925993 -116.784418 92 5054ft 127kts
15-Dec-18 11:01 33.925367 -116.741925 89 4667ft 125kts
15-Dec-18 11:02 33.923636 -116.699327 95 4392ft 127kts
15-Dec-18 11:03 33.919605 -116.656023 100 4015ft 129kts
15-Dec-18 11:04 33.912513 -116.614031 102 3776ft 129kts
15-Dec-18 11:05 33.902491 -116.571295 115 3361ft 134kts
15-Dec-18 11:06 33.876641 -116.537777 140 2307ft 139kts
15-Dec-18 11:07 33.847259 -116.510612 142 1605ft 121kts
15-Dec-18 11:08 33.822588 -116.489725 145 1543ft 89kts
15-Dec-18 11:09 33.810984 -116.490830 325 872ft 71kts
15-Dec-18 11:10 33.823982 -116.502588 323 484ft 47kts
15-Dec-18 11:11 33.828775 -116.508080 250 481ft 0kts
15-Dec-18 11:12 33.828775 -116.508081 250 481ft 0kts
15-Dec-18 11:13 33.828655 -116.509778 270 481ft 6kts
15-Dec-18 11:14 33.829036 -116.511299 271 481ft 0kts
15-Dec-18 11:15 33.829036 -116.511299 271 481ft 0kts
15-Dec-18 11:16 33.829036 -116.511299 271 481ft 0kts

Navigation Log

Ident Type
Flight plan parsing failed, navigation log unavailable